Time;durP1;ratioP1;P1;durP2;ratioP2;P2;SDS_P1;SDS_P2;PMS_P1;PMS_P2;Temp;Humidity;BMP_temperature;BMP_pressure;BME280_temperature;BME280_humidity;BME280_pressure;Samples;Min_cycle;Max_cycle;Signal;HPM_P1;HPM_P2
2021/04/17 00:01:38;;;;;;;1.67;1.58;;;4.50;99.90;;;;;;5076992;28;20213;-59
2021/04/17 00:04:06;;;;;;;1.85;1.75;;;4.60;99.90;;;;;;5084483;28;20214;-58
2021/04/17 00:06:33;;;;;;;2.47;1.95;;;4.40;99.90;;;;;;5078619;28;20271;-59
2021/04/17 00:09:03;;;;;;;1.92;1.83;;;4.40;99.90;;;;;;5090077;28;20626;-59
2021/04/17 00:11:30;;;;;;;1.23;1.15;;;4.40;99.90;;;;;;5081128;28;20572;-59
2021/04/17 00:13:57;;;;;;;1.52;1.42;;;4.40;99.90;;;;;;5087391;28;20406;-59
2021/04/17 00:16:23;;;;;;;2.10;2.00;;;4.40;99.90;;;;;;5078132;28;20220;-60
2021/04/17 00:18:50;;;;;;;1.50;1.40;;;4.40;99.90;;;;;;5071865;28;20503;-58
2021/04/17 00:21:18;;;;;;;1.60;1.50;;;4.40;99.90;;;;;;5077679;28;20215;-59
2021/04/17 00:23:45;;;;;;;3.10;1.83;;;4.40;99.90;;;;;;5075229;28;20225;-60
2021/04/17 00:26:12;;;;;;;2.50;1.83;;;4.40;99.90;;;;;;5077980;28;20565;-59
2021/04/17 00:28:38;;;;;;;2.33;2.13;;;4.40;99.90;;;;;;5078201;28;20569;-59
2021/04/17 00:31:05;;;;;;;2.50;1.40;;;4.40;99.90;;;;;;5090836;28;20227;-58
2021/04/17 00:33:32;;;;;;;2.40;2.30;;;4.40;99.90;;;;;;5079194;28;20206;-60
2021/04/17 00:35:59;;;;;;;3.10;2.85;;;4.50;99.90;;;;;;5084438;28;20356;-59
2021/04/17 00:38:25;;;;;;;3.60;2.15;;;4.50;99.90;;;;;;5086478;28;20248;-58
2021/04/17 00:40:52;;;;;;;2.17;1.73;;;4.50;99.90;;;;;;5093573;28;20289;-59
2021/04/17 00:43:18;;;;;;;2.83;2.63;;;4.50;99.90;;;;;;5097046;28;20272;-58
2021/04/17 00:45:45;;;;;;;1.55;1.45;;;4.50;99.90;;;;;;5069482;28;20210;-58
2021/04/17 00:48:13;;;;;;;1.65;1.42;;;4.70;99.90;;;;;;5077505;28;20264;-59
2021/04/17 00:50:41;;;;;;;4.45;2.15;;;4.60;99.90;;;;;;5064230;28;20269;-59
2021/04/17 00:53:08;;;;;;;2.55;2.05;;;4.60;99.90;;;;;;5082719;28;20560;-60
2021/04/17 00:55:35;;;;;;;1.95;1.75;;;4.50;99.90;;;;;;5069327;28;20213;-59
2021/04/17 00:58:04;;;;;;;3.53;3.30;;;4.70;99.90;;;;;;5078077;28;20274;-60
2021/04/17 01:00:36;;;;;;;3.33;3.13;;;4.70;99.90;;;;;;5074871;28;20466;-60
2021/04/17 01:03:02;;;;;;;1.58;1.58;;;4.60;99.90;;;;;;5095069;28;20209;-59
2021/04/17 01:05:31;;;;;;;1.10;1.00;;;4.50;99.90;;;;;;5090393;28;20208;-58
2021/04/17 01:08:02;;;;;;;2.47;2.20;;;4.50;99.90;;;;;;5086426;28;20210;-59
2021/04/17 01:10:34;;;;;;;2.13;1.92;;;4.40;99.90;;;;;;5077677;28;20246;-59
2021/04/17 01:13:01;;;;;;;3.20;2.78;;;4.50;99.90;;;;;;5077817;28;20205;-59
2021/04/17 01:15:28;;;;;;;3.83;3.13;;;4.50;99.90;;;;;;5078062;28;20206;-59
2021/04/17 01:17:58;;;;;;;2.38;2.22;;;4.40;99.90;;;;;;5077995;28;20259;-59
2021/04/17 01:20:34;;;;;;;2.30;2.20;;;4.40;99.90;;;;;;5080216;28;20259;-59
2021/04/17 01:23:19;;;;;;;3.40;2.47;;;4.40;99.90;;;;;;5077743;28;20210;-58
2021/04/17 01:26:13;;;;;;;2.55;2.35;;;4.40;99.90;;;;;;5078067;28;20206;-60
2021/04/17 01:28:50;;;;;;;2.05;1.90;;;4.30;99.90;;;;;;5069806;28;20212;-59
2021/04/17 01:31:20;;;;;;;2.88;2.67;;;4.30;99.90;;;;;;5068551;28;20319;-59
2021/04/17 01:33:51;;;;;;;1.65;1.55;;;4.30;99.90;;;;;;5077646;28;20254;-59
2021/04/17 01:36:19;;;;;;;2.55;2.35;;;4.20;99.90;;;;;;5071562;28;20396;-59
2021/04/17 01:39:11;;;;;;;3.10;2.88;;;4.30;99.90;;;;;;5077584;28;20244;-59
2021/04/17 01:41:46;;;;;;;5.35;2.92;;;4.30;99.90;;;;;;5080684;28;20259;-60
2021/04/17 01:44:26;;;;;;;2.17;1.98;;;4.40;99.90;;;;;;5064637;28;20611;-59
2021/04/17 01:47:03;;;;;;;2.03;1.85;;;4.40;99.90;;;;;;5077801;28;20205;-59
2021/04/17 01:49:32;;;;;;;3.08;2.22;;;4.30;99.90;;;;;;5080891;28;20251;-59
2021/04/17 01:52:00;;;;;;;2.13;1.98;;;4.30;99.90;;;;;;5078173;28;20486;-64
2021/04/17 01:54:33;;;;;;;2.88;2.67;;;3.50;99.90;;;;;;5079741;28;20528;-59
2021/04/17 01:57:03;;;;;;;2.80;2.60;;;4.30;99.90;;;;;;5077731;28;20260;-59
2021/04/17 01:59:35;;;;;;;2.50;1.73;;;4.30;99.90;;;;;;5071307;28;20301;-59
2021/04/17 02:02:01;;;;;;;2.13;1.73;;;4.30;99.90;;;;;;5080051;28;20271;-59
2021/04/17 02:04:28;;;;;;;4.43;4.03;;;4.30;99.90;;;;;;5066886;28;20276;-58
2021/04/17 02:06:55;;;;;;;4.70;2.85;;;4.40;99.90;;;;;;5081648;28;20209;-59
2021/04/17 02:09:21;;;;;;;2.83;2.63;;;4.40;99.90;;;;;;5088051;28;20275;-60
2021/04/17 02:11:48;;;;;;;3.10;2.40;;;4.30;99.90;;;;;;5101909;28;20220;-59
2021/04/17 02:14:14;;;;;;;4.00;3.60;;;4.30;99.90;;;;;;5098793;28;20701;-59
2021/04/17 02:16:49;;;;;;;4.30;4.00;;;4.30;99.90;;;;;;5090427;28;20211;-59
2021/04/17 02:19:39;;;;;;;2.67;2.47;;;4.30;99.90;;;;;;5099514;28;20234;-60
2021/04/17 02:22:07;;;;;;;1.92;1.75;;;4.30;99.90;;;;;;5081260;28;20199;-59
2021/04/17 02:24:34;;;;;;;2.67;1.90;;;4.40;99.90;;;;;;5082073;28;20204;-59
2021/04/17 02:27:00;;;;;;;5.30;1.92;;;4.40;99.90;;;;;;5079344;28;20214;-59
2021/04/17 02:29:27;;;;;;;3.85;2.83;;;4.20;99.90;;;;;;5081931;28;20206;-59
2021/04/17 02:31:53;;;;;;;3.67;1.88;;;4.20;99.90;;;;;;5085525;28;20271;-60
2021/04/17 02:34:23;;;;;;;1.88;1.77;;;4.20;99.90;;;;;;5078889;28;20237;-59
2021/04/17 02:36:50;;;;;;;4.32;2.53;;;4.10;99.90;;;;;;5075846;28;20519;-60
2021/04/17 02:39:16;;;;;;;3.33;2.95;;;4.20;99.90;;;;;;5080047;28;20232;-60
2021/04/17 02:41:43;;;;;;;2.80;2.70;;;4.10;99.90;;;;;;5075541;28;20458;-62
2021/04/17 02:44:09;;;;;;;3.03;2.60;;;4.20;99.90;;;;;;5081811;28;20502;-60
2021/04/17 02:46:36;;;;;;;5.85;5.45;;;4.20;99.90;;;;;;5079670;28;20387;-60
2021/04/17 02:49:03;;;;;;;4.03;1.92;;;4.30;99.90;;;;;;5079780;28;20243;-61
2021/04/17 02:51:30;;;;;;;4.30;2.40;;;4.10;99.90;;;;;;5076707;28;20205;-60
2021/04/17 02:53:56;;;;;;;2.40;2.13;;;4.20;99.90;;;;;;5080357;28;20211;-60
2021/04/17 02:56:23;;;;;;;2.53;2.30;;;4.20;99.90;;;;;;5079911;28;20242;-60
2021/04/17 02:58:49;;;;;;;2.88;2.05;;;4.30;99.90;;;;;;5066640;28;20278;-61
2021/04/17 03:01:16;;;;;;;3.88;3.33;;;4.10;99.90;;;;;;5079636;28;20236;-59
2021/04/17 03:03:43;;;;;;;3.00;1.85;;;4.10;99.90;;;;;;5080032;28;20476;-59
2021/04/17 03:06:09;;;;;;;3.85;3.55;;;4.00;99.90;;;;;;5080474;28;20205;-59
2021/04/17 03:08:36;;;;;;;2.58;1.67;;;4.00;99.90;;;;;;5080434;28;20213;-59
2021/04/17 03:11:03;;;;;;;2.97;2.67;;;4.00;99.90;;;;;;5093028;28;20234;-59
2021/04/17 03:13:30;;;;;;;1.83;1.63;;;4.00;99.90;;;;;;5090098;28;20210;-60
2021/04/17 03:15:56;;;;;;;3.55;2.38;;;4.00;99.90;;;;;;5083331;28;20200;-60
2021/04/17 03:18:23;;;;;;;5.68;2.78;;;4.10;99.90;;;;;;5087268;28;20479;-60
2021/04/17 03:20:51;;;;;;;4.13;3.72;;;4.00;99.90;;;;;;5085091;28;20262;-59
2021/04/17 03:23:17;;;;;;;2.30;2.10;;;4.10;99.90;;;;;;5079791;28;20204;-60
2021/04/17 03:25:44;;;;;;;3.42;1.95;;;4.00;99.90;;;;;;5079637;28;20507;-60
2021/04/17 03:28:11;;;;;;;3.00;2.50;;;4.10;99.90;;;;;;5078914;28;20206;-60
2021/04/17 03:30:37;;;;;;;2.65;2.45;;;4.10;99.90;;;;;;5079579;28;20258;-59
2021/04/17 03:33:04;;;;;;;1.92;1.83;;;4.10;99.90;;;;;;5078792;28;20212;-59
2021/04/17 03:35:32;;;;;;;4.68;2.20;;;4.20;99.90;;;;;;5081194;28;20196;-60
2021/04/17 03:37:59;;;;;;;3.70;3.35;;;4.20;99.90;;;;;;5090285;28;20503;-60
2021/04/17 03:40:27;;;;;;;2.65;1.92;;;4.20;99.90;;;;;;5079331;28;20234;-59
2021/04/17 03:42:53;;;;;;;3.78;3.03;;;4.20;99.90;;;;;;5072802;28;20214;-59
2021/04/17 03:45:20;;;;;;;4.00;3.80;;;4.10;99.90;;;;;;5081169;28;20211;-60
2021/04/17 03:47:47;;;;;;;2.95;2.58;;;4.10;99.90;;;;;;5080603;28;20211;-59
2021/04/17 03:50:15;;;;;;;3.97;2.70;;;4.10;99.90;;;;;;5078684;28;20239;-60
2021/04/17 03:52:42;;;;;;;7.25;2.97;;;4.10;99.90;;;;;;5088297;28;20498;-59
2021/04/17 03:55:12;;;;;;;3.90;3.60;;;4.20;99.90;;;;;;5080496;28;20205;-60
2021/04/17 03:57:39;;;;;;;4.20;3.83;;;4.30;99.90;;;;;;5078559;28;20209;-60
2021/04/17 04:00:08;;;;;;;1.77;1.67;;;4.30;99.90;;;;;;5078795;28;20239;-59
2021/04/17 04:02:35;;;;;;;3.75;2.83;;;4.20;99.90;;;;;;5092994;28;20209;-60
2021/04/17 04:05:03;;;;;;;3.53;3.15;;;4.30;99.90;;;;;;5083358;28;20279;-60
2021/04/17 04:07:29;;;;;;;3.85;3.10;;;4.20;99.90;;;;;;5078535;28;20205;-60
2021/04/17 04:09:56;;;;;;;3.20;2.90;;;4.30;99.90;;;;;;5087105;28;20223;-59
2021/04/17 04:12:22;;;;;;;3.22;3.00;;;4.20;99.90;;;;;;5098321;28;20208;-60
2021/04/17 04:14:49;;;;;;;2.55;2.35;;;4.10;99.90;;;;;;5093447;28;20210;-60
2021/04/17 04:17:15;;;;;;;3.40;3.13;;;4.10;99.90;;;;;;5080289;28;20245;-60
2021/04/17 04:19:42;;;;;;;2.60;2.40;;;4.10;99.90;;;;;;5070106;28;20232;-60
2021/04/17 04:22:09;;;;;;;2.25;2.05;;;4.10;99.90;;;;;;5087256;28;20256;-60
2021/04/17 04:24:35;;;;;;;2.05;1.90;;;4.10;99.90;;;;;;5080536;28;20213;-61
2021/04/17 04:27:02;;;;;;;3.35;3.05;;;4.10;99.90;;;;;;5087986;28;20211;-60
2021/04/17 04:29:28;;;;;;;3.70;3.42;;;4.10;99.90;;;;;;5079926;28;20199;-59
2021/04/17 04:31:55;;;;;;;2.42;2.10;;;4.30;99.90;;;;;;5089618;28;20219;-60
2021/04/17 04:34:22;;;;;;;10.40;4.30;;;4.30;99.90;;;;;;5092963;28;20245;-61
2021/04/17 04:36:49;;;;;;;4.78;3.40;;;4.20;99.90;;;;;;5072284;28;20553;-61
2021/04/17 04:39:15;;;;;;;1.90;1.60;;;4.20;99.90;;;;;;5070504;28;20477;-59
2021/04/17 04:41:42;;;;;;;4.80;2.88;;;4.10;99.90;;;;;;5077531;28;20238;-60
2021/04/17 04:44:10;;;;;;;2.25;2.08;;;4.20;99.90;;;;;;5078104;28;20209;-61
2021/04/17 04:46:36;;;;;;;3.72;3.38;;;4.10;99.90;;;;;;5092031;28;20425;-60
2021/04/17 04:49:04;;;;;;;2.15;2.05;;;4.20;99.90;;;;;;5086550;28;20236;-60
2021/04/17 04:51:30;;;;;;;4.60;3.90;;;4.30;99.90;;;;;;5082909;28;20211;-60
2021/04/17 04:53:58;;;;;;;3.10;2.55;;;4.40;99.90;;;;;;5078435;28;20447;-59
2021/04/17 04:56:25;;;;;;;1.65;1.55;;;4.20;99.90;;;;;;5077945;28;20213;-59
2021/04/17 04:58:52;;;;;;;2.65;2.45;;;4.30;99.90;;;;;;5078019;28;20243;-59
2021/04/17 05:01:19;;;;;;;5.65;2.67;;;4.30;99.90;;;;;;5076599;28;20229;-58
2021/04/17 05:03:46;;;;;;;5.45;2.92;;;4.40;99.90;;;;;;5077781;28;20205;-59
2021/04/17 05:06:12;;;;;;;3.25;2.45;;;4.40;99.90;;;;;;5077248;28;20260;-60
2021/04/17 05:08:39;;;;;;;3.63;3.33;;;4.40;99.90;;;;;;5077317;28;20563;-60
2021/04/17 05:11:06;;;;;;;2.35;2.25;;;4.30;99.90;;;;;;5092110;28;20435;-60
2021/04/17 05:13:32;;;;;;;3.17;2.97;;;4.20;99.90;;;;;;5077513;28;20213;-59
2021/04/17 05:15:59;;;;;;;6.18;4.50;;;4.20;99.90;;;;;;5079982;28;20210;-59
2021/04/17 05:18:26;;;;;;;3.20;2.45;;;4.30;99.90;;;;;;5087909;28;20528;-60
2021/04/17 05:20:52;;;;;;;2.95;2.55;;;4.30;99.90;;;;;;5078698;28;20230;-60
2021/04/17 05:23:19;;;;;;;4.00;2.88;;;4.30;99.90;;;;;;5084387;28;20209;-59
2021/04/17 05:25:45;;;;;;;3.65;1.85;;;4.30;99.90;;;;;;5098329;28;20217;-60
2021/04/17 05:28:12;;;;;;;3.33;3.03;;;4.20;99.90;;;;;;5091888;28;20205;-59
2021/04/17 05:30:39;;;;;;;3.25;1.95;;;4.20;99.90;;;;;;5078502;28;20209;-61
2021/04/17 05:33:06;;;;;;;1.98;1.88;;;4.20;99.90;;;;;;5077074;28;20204;-59
2021/04/17 05:35:32;;;;;;;2.70;2.47;;;4.20;99.90;;;;;;5077399;28;20236;-60
2021/04/17 05:37:59;;;;;;;3.42;2.90;;;4.30;99.90;;;;;;5083782;28;20268;-59
2021/04/17 05:40:26;;;;;;;1.70;1.55;;;4.30;99.90;;;;;;5077360;28;20233;-59
2021/04/17 05:42:53;;;;;;;4.35;3.42;;;4.30;99.90;;;;;;5078264;28;20210;-59
2021/04/17 05:45:20;;;;;;;2.67;2.55;;;4.50;99.90;;;;;;5077395;28;20217;-59
2021/04/17 05:47:46;;;;;;;10.32;4.63;;;4.40;99.90;;;;;;5082392;28;20206;-61
2021/04/17 05:50:13;;;;;;;3.50;2.78;;;4.50;99.90;;;;;;5076581;28;20249;-59
2021/04/17 05:52:40;;;;;;;2.45;2.10;;;4.50;99.90;;;;;;5078654;28;20209;-59
2021/04/17 05:55:08;;;;;;;6.65;3.00;;;4.50;99.90;;;;;;5080152;28;20263;-60
2021/04/17 05:57:34;;;;;;;3.15;2.67;;;4.50;99.90;;;;;;5077312;28;20247;-59
2021/04/17 06:00:01;;;;;;;4.15;2.17;;;4.50;99.90;;;;;;5077275;28;20341;-59
2021/04/17 06:02:27;;;;;;;3.38;3.17;;;4.50;99.90;;;;;;5076929;28;20209;-59
2021/04/17 06:04:54;;;;;;;3.25;2.95;;;4.50;99.90;;;;;;5077414;28;20209;-61
2021/04/17 06:07:20;;;;;;;6.40;3.40;;;4.60;99.90;;;;;;5076458;28;20613;-59
2021/04/17 06:09:47;;;;;;;2.63;2.42;;;4.60;99.90;;;;;;5084775;28;20213;-60
2021/04/17 06:12:14;;;;;;;3.53;3.22;;;4.70;99.90;;;;;;5097864;28;20202;-61
2021/04/17 06:14:40;;;;;;;4.97;2.30;;;4.70;99.90;;;;;;5077637;28;20469;-60
2021/04/17 06:17:07;;;;;;;3.55;3.20;;;4.80;99.90;;;;;;5076684;28;20256;-60
2021/04/17 06:19:34;;;;;;;3.00;2.80;;;4.80;99.90;;;;;;5080435;28;20210;-59
2021/04/17 06:22:01;;;;;;;4.10;3.72;;;4.80;99.90;;;;;;5087038;28;20301;-59
2021/04/17 06:24:27;;;;;;;3.53;3.22;;;4.80;99.90;;;;;;5076365;28;20209;-59
2021/04/17 06:26:54;;;;;;;5.95;4.22;;;4.80;99.90;;;;;;5085384;28;20213;-59
2021/04/17 06:29:21;;;;;;;2.55;2.40;;;4.90;99.90;;;;;;5082007;28;20512;-60
2021/04/17 06:31:47;;;;;;;2.08;1.45;;;5.00;99.90;;;;;;5097119;28;20279;-59
2021/04/17 06:34:14;;;;;;;2.58;2.05;;;5.00;99.90;;;;;;5083828;28;20207;-59
2021/04/17 06:36:41;;;;;;;3.25;2.95;;;5.00;99.90;;;;;;5067750;28;20250;-63
2021/04/17 06:39:08;;;;;;;3.25;2.38;;;5.00;99.90;;;;;;5085508;28;20207;-60
2021/04/17 06:41:36;;;;;;;3.55;2.90;;;5.00;99.90;;;;;;5079818;28;20234;-60
2021/04/17 06:44:05;;;;;;;6.15;4.53;;;5.10;99.90;;;;;;5087175;28;20210;-60
2021/04/17 06:46:33;;;;;;;7.25;5.75;;;4.90;99.90;;;;;;5076434;28;20202;-61
2021/04/17 06:49:01;;;;;;;4.22;2.30;;;4.80;99.90;;;;;;5080059;28;20209;-59
2021/04/17 06:51:30;;;;;;;4.88;3.35;;;4.80;99.90;;;;;;5065013;28;20209;-60
2021/04/17 06:53:57;;;;;;;3.95;3.05;;;4.80;99.90;;;;;;5067200;28;20226;-60
2021/04/17 06:56:24;;;;;;;3.30;2.80;;;4.80;99.90;;;;;;5081217;28;20515;-59
2021/04/17 06:58:51;;;;;;;4.47;4.00;;;4.80;99.90;;;;;;5080088;28;20302;-60
2021/04/17 07:01:18;;;;;;;4.88;2.97;;;5.00;99.90;;;;;;5080361;28;20242;-62
2021/04/17 07:03:47;;;;;;;4.93;3.40;;;5.00;99.90;;;;;;5077852;28;20209;-60
2021/04/17 07:06:14;;;;;;;7.00;4.57;;;5.30;99.90;;;;;;5079975;28;20205;-60
2021/04/17 07:08:43;;;;;;;5.18;3.80;;;5.20;99.90;;;;;;5079900;28;20213;-60
2021/04/17 07:11:10;;;;;;;6.65;4.15;;;5.10;99.90;;;;;;5080160;28;20316;-58
2021/04/17 07:13:37;;;;;;;10.98;6.68;;;5.10;99.90;;;;;;5079627;28;20210;-59
2021/04/17 07:16:08;;;;;;;5.63;2.80;;;5.10;99.90;;;;;;5078796;28;20197;-61
2021/04/17 07:18:37;;;;;;;6.80;4.43;;;5.10;99.90;;;;;;5079728;28;20210;-59
2021/04/17 07:21:14;;;;;;;5.35;4.80;;;5.20;99.90;;;;;;5078296;28;20284;-60
2021/04/17 07:23:45;;;;;;;4.57;4.20;;;5.30;99.90;;;;;;5086345;28;20214;-60
2021/04/17 07:26:16;;;;;;;4.15;3.75;;;5.40;99.90;;;;;;5076793;28;20233;-60
2021/04/17 07:29:02;;;;;;;4.60;4.18;;;5.60;99.90;;;;;;5076551;28;20539;-59
2021/04/17 07:31:31;;;;;;;4.00;3.35;;;5.40;99.90;;;;;;5077833;28;20550;-60
2021/04/17 07:34:11;;;;;;;10.63;4.30;;;5.30;99.90;;;;;;5079366;28;20209;-59
2021/04/17 07:36:50;;;;;;;8.38;2.95;;;5.30;99.90;;;;;;5079387;28;20221;-60
2021/04/17 07:39:49;;;;;;;3.90;3.45;;;5.40;99.90;;;;;;5080292;28;20251;-60
2021/04/17 07:42:15;;;;;;;3.47;2.80;;;5.50;99.90;;;;;;5079039;28;20210;-60
2021/04/17 07:44:44;;;;;;;5.63;4.03;;;5.50;99.90;;;;;;5077671;28;20214;-60
2021/04/17 07:47:33;;;;;;;4.30;3.50;;;5.60;99.90;;;;;;5079467;28;20203;-60
2021/04/17 07:50:08;;;;;;;4.90;3.35;;;5.60;99.90;;;;;;5077415;28;20242;-62
2021/04/17 07:52:35;;;;;;;3.28;2.97;;;5.60;99.90;;;;;;5077808;28;20221;-60
2021/04/17 07:55:08;;;;;;;5.82;3.35;;;5.60;99.90;;;;;;5075303;28;20206;-60
2021/04/17 07:57:40;;;;;;;7.55;6.68;;;5.50;99.90;;;;;;5080390;28;20217;-61
2021/04/17 08:00:09;;;;;;;3.65;2.95;;;5.60;99.90;;;;;;5075140;28;20233;-60
2021/04/17 08:02:38;;;;;;;3.38;3.08;;;5.70;99.90;;;;;;5076974;28;20365;-60
2021/04/17 08:05:06;;;;;;;4.00;2.75;;;5.90;99.90;;;;;;5081922;28;20534;-60
2021/04/17 08:07:33;;;;;;;6.32;3.80;;;6.00;99.90;;;;;;5085069;28;20473;-60
2021/04/17 08:10:01;;;;;;;4.03;3.63;;;6.20;99.90;;;;;;5092840;28;20507;-60
2021/04/17 08:12:28;;;;;;;4.97;3.15;;;6.10;99.90;;;;;;5093249;28;20549;-60
2021/04/17 08:14:54;;;;;;;6.55;3.20;;;6.00;99.90;;;;;;5091301;28;20195;-60
2021/04/17 08:17:22;;;;;;;5.85;3.03;;;6.00;99.90;;;;;;5093694;28;20208;-60
2021/04/17 08:19:48;;;;;;;7.38;4.15;;;6.20;99.90;;;;;;5090497;28;20244;-60
2021/04/17 08:22:16;;;;;;;6.07;4.13;;;6.40;99.90;;;;;;5089767;28;20204;-60
2021/04/17 08:24:46;;;;;;;3.70;3.42;;;6.40;99.90;;;;;;5089852;28;20433;-60
2021/04/17 08:27:13;;;;;;;4.57;3.22;;;6.40;99.90;;;;;;5091283;28;20422;-60
2021/04/17 08:29:52;;;;;;;4.90;4.40;;;6.30;99.90;;;;;;5088283;28;20202;-60
2021/04/17 08:32:46;;;;;;;4.47;4.07;;;6.20;99.90;;;;;;5093817;28;20539;-60
2021/04/17 08:35:23;;;;;;;5.93;4.30;;;6.10;99.90;;;;;;5089692;28;20202;-60
2021/04/17 08:37:56;;;;;;;10.48;5.40;;;6.30;99.90;;;;;;5084084;28;20399;-61
2021/04/17 08:40:37;;;;;;;4.15;3.80;;;6.50;99.90;;;;;;5077008;28;20570;-60
2021/04/17 08:43:28;;;;;;;7.45;5.32;;;6.50;99.90;;;;;;5077614;28;20210;-60
2021/04/17 08:46:08;;;;;;;6.70;4.28;;;6.70;99.90;;;;;;5070203;28;20203;-61
2021/04/17 08:48:43;;;;;;;6.90;3.95;;;7.10;99.90;;;;;;5075022;28;20244;-60
2021/04/17 08:51:22;;;;;;;6.53;4.03;;;7.20;99.90;;;;;;5077094;28;20557;-60
2021/04/17 08:53:49;;;;;;;4.15;3.75;;;7.00;99.90;;;;;;5075867;28;20202;-61
2021/04/17 08:56:16;;;;;;;7.15;4.88;;;6.90;99.90;;;;;;5077576;28;20239;-61
2021/04/17 08:59:09;;;;;;;6.43;4.68;;;7.10;99.90;;;;;;5077479;28;20465;-61
2021/04/17 09:01:40;;;;;;;4.90;4.18;;;7.20;99.90;;;;;;5077671;28;20305;-61
2021/04/17 09:04:11;;;;;;;5.95;4.95;;;7.30;99.90;;;;;;5076003;28;20211;-60
2021/04/17 09:06:45;;;;;;;6.63;4.80;;;7.30;99.90;;;;;;5076817;28;20203;-61
2021/04/17 09:09:21;;;;;;;5.88;5.32;;;7.40;99.90;;;;;;5080955;28;20203;-61
2021/04/17 09:11:55;;;;;;;6.47;4.93;;;7.50;99.90;;;;;;5091997;28;20209;-60
2021/04/17 09:14:32;;;;;;;5.50;4.93;;;7.50;99.90;;;;;;5080058;28;20680;-60
2021/04/17 09:17:01;;;;;;;10.93;6.20;;;7.30;99.90;;;;;;5077340;28;20273;-60
2021/04/17 09:19:40;;;;;;;7.65;5.60;;;7.40;99.90;;;;;;5076774;28;20199;-60
2021/04/17 09:22:26;;;;;;;4.25;3.65;;;7.30;99.90;;;;;;5077010;28;20467;-60
2021/04/17 09:24:58;;;;;;;5.00;4.03;;;7.30;99.90;;;;;;5071137;28;20210;-59
2021/04/17 09:27:25;;;;;;;5.00;4.53;;;7.40;99.90;;;;;;5083182;28;20273;-61
2021/04/17 09:30:04;;;;;;;4.13;3.47;;;7.20;99.90;;;;;;5076693;28;20552;-60
2021/04/17 09:32:37;;;;;;;5.85;5.20;;;7.00;99.90;;;;;;5070010;28;20242;-60
2021/04/17 09:35:19;;;;;;;5.70;4.00;;;7.00;99.90;;;;;;5076837;28;20206;-60
2021/04/17 09:38:06;;;;;;;5.50;4.28;;;7.00;99.90;;;;;;5074700;28;20228;-59
2021/04/17 09:40:37;;;;;;;4.32;3.92;;;7.40;99.90;;;;;;5080382;28;20544;-60
2021/04/17 09:43:06;;;;;;;6.70;5.20;;;7.70;99.90;;;;;;5081179;28;20245;-60
2021/04/17 09:45:41;;;;;;;4.78;4.32;;;7.60;99.90;;;;;;5077105;28;20256;-60
2021/04/17 09:48:09;;;;;;;5.68;4.88;;;7.70;99.90;;;;;;5081405;28;20209;-60
2021/04/17 09:50:38;;;;;;;10.45;5.40;;;7.70;99.90;;;;;;5076626;28;20254;-60
2021/04/17 09:53:14;;;;;;;5.38;4.63;;;7.80;99.90;;;;;;5076649;28;20564;-61
2021/04/17 09:55:52;;;;;;;5.00;3.05;;;7.90;99.90;;;;;;5062301;28;20206;-60
2021/04/17 09:58:28;;;;;;;3.90;3.47;;;8.20;99.90;;;;;;5076251;28;20211;-60
2021/04/17 10:00:56;;;;;;;7.55;5.55;;;8.50;99.90;;;;;;5065935;28;20234;-60
2021/04/17 10:03:29;;;;;;;6.00;4.45;;;8.80;99.90;;;;;;5076397;28;20211;-61
2021/04/17 10:05:56;;;;;;;7.43;5.63;;;8.70;99.90;;;;;;5076333;28;20493;-59
2021/04/17 10:08:34;;;;;;;5.43;4.07;;;8.90;99.90;;;;;;5086581;28;20538;-60
2021/04/17 10:11:03;;;;;;;5.50;4.40;;;8.90;99.90;;;;;;5091297;28;20526;-62
2021/04/17 10:13:36;;;;;;;5.90;5.30;;;8.90;99.90;;;;;;5094572;28;20208;-61
2021/04/17 10:16:02;;;;;;;8.05;4.68;;;8.80;99.90;;;;;;5086890;28;20563;-60
2021/04/17 10:18:30;;;;;;;8.93;5.35;;;8.70;99.90;;;;;;5087089;28;20210;-61
2021/04/17 10:20:57;;;;;;;6.68;3.70;;;8.50;99.90;;;;;;5076050;28;20230;-60
2021/04/17 10:23:23;;;;;;;8.70;6.35;;;8.30;99.90;;;;;;5079670;28;20217;-61
2021/04/17 10:25:50;;;;;;;3.92;3.50;;;8.30;99.90;;;;;;5080811;28;20211;-60
2021/04/17 10:28:23;;;;;;;9.07;3.95;;;8.20;99.90;;;;;;5079561;28;20207;-60
2021/04/17 10:30:55;;;;;;;8.15;4.50;;;8.20;99.90;;;;;;5090441;28;20229;-60
2021/04/17 10:33:23;;;;;;;3.38;3.00;;;8.50;99.90;;;;;;5078121;28;20202;-62
2021/04/17 10:35:53;;;;;;;8.88;6.15;;;8.60;99.90;;;;;;5079728;28;20210;-60
2021/04/17 10:38:32;;;;;;;5.97;4.80;;;8.50;99.70;;;;;;5091248;28;20256;-61
2021/04/17 10:41:02;;;;;;;7.10;4.55;;;8.00;99.90;;;;;;5085909;28;20231;-60
2021/04/17 10:43:31;;;;;;;4.47;3.92;;;8.00;99.90;;;;;;5078161;28;20203;-61
2021/04/17 10:46:05;;;;;;;5.03;4.43;;;7.90;99.90;;;;;;5094816;28;20214;-61
2021/04/17 10:48:43;;;;;;;4.18;3.75;;;8.10;99.90;;;;;;5079389;28;20210;-61
2021/04/17 10:51:14;;;;;;;6.00;4.25;;;8.20;99.90;;;;;;5079036;28;20210;-61
2021/04/17 10:53:43;;;;;;;4.15;3.58;;;8.50;99.90;;;;;;5076027;28;20345;-61
2021/04/17 10:56:17;;;;;;;8.10;4.40;;;8.50;99.90;;;;;;5080258;28;20207;-61
2021/04/17 10:58:46;;;;;;;4.70;4.30;;;8.30;99.90;;;;;;5075433;28;20211;-61
2021/04/17 11:01:15;;;;;;;12.48;4.50;;;8.40;99.90;;;;;;5081603;28;20230;-61
2021/04/17 11:03:57;;;;;;;5.00;4.53;;;8.50;99.90;;;;;;5077282;28;20257;-61
2021/04/17 11:06:32;;;;;;;6.35;4.30;;;9.00;99.90;;;;;;5075326;28;20341;-61
2021/04/17 11:09:06;;;;;;;10.05;4.35;;;9.70;98.80;;;;;;5076763;28;20210;-61
2021/04/17 11:11:34;;;;;;;4.38;3.67;;;10.00;96.70;;;;;;5078782;28;20271;-61
2021/04/17 11:14:05;;;;;;;2.90;2.70;;;10.20;97.00;;;;;;5078664;28;20230;-61
2021/04/17 11:16:42;;;;;;;4.97;3.58;;;10.30;96.40;;;;;;5079034;28;20203;-61
2021/04/17 11:19:28;;;;;;;6.70;3.35;;;10.30;97.00;;;;;;5080626;28;20246;-60
2021/04/17 11:22:15;;;;;;;4.00;3.55;;;10.20;96.30;;;;;;5078188;28;20227;-60
2021/04/17 11:25:04;;;;;;;4.53;3.33;;;10.40;96.20;;;;;;5078139;28;20237;-60
2021/04/17 11:27:32;;;;;;;3.40;2.92;;;10.50;96.90;;;;;;5079792;28;20509;-62
2021/04/17 11:30:01;;;;;;;3.95;3.10;;;10.50;95.30;;;;;;5082267;28;20299;-60
2021/04/17 11:32:28;;;;;;;3.95;3.53;;;10.90;94.80;;;;;;5080891;28;20204;-61
2021/04/17 11:34:56;;;;;;;4.05;3.75;;;10.80;94.70;;;;;;5078502;28;20502;-61
2021/04/17 11:37:24;;;;;;;3.88;3.58;;;10.70;94.60;;;;;;5081651;28;20208;-60
2021/04/17 11:39:51;;;;;;;4.80;4.40;;;10.50;96.10;;;;;;5078194;28;20278;-60
2021/04/17 11:42:18;;;;;;;5.75;4.10;;;10.50;96.40;;;;;;5079109;28;20297;-61
2021/04/17 11:44:45;;;;;;;5.03;3.28;;;10.90;96.10;;;;;;5084151;28;20211;-60
2021/04/17 11:47:12;;;;;;;5.05;4.20;;;10.60;95.20;;;;;;5084743;28;20203;-60
2021/04/17 11:49:40;;;;;;;5.65;3.45;;;10.40;95.50;;;;;;5082985;28;20263;-61
2021/04/17 11:52:06;;;;;;;5.43;3.70;;;10.00;96.70;;;;;;5078843;28;20250;-61
2021/04/17 11:54:33;;;;;;;7.15;3.70;;;9.80;96.60;;;;;;5074261;28;20212;-62
2021/04/17 11:56:59;;;;;;;4.03;3.55;;;9.50;97.20;;;;;;5078234;28;20204;-61
2021/04/17 11:59:27;;;;;;;4.15;3.75;;;9.50;97.40;;;;;;5079294;28;20215;-61
2021/04/17 12:01:54;;;;;;;4.78;3.90;;;9.60;97.80;;;;;;5080057;28;20239;-61
2021/04/17 12:04:22;;;;;;;5.32;2.85;;;9.70;97.70;;;;;;5077415;28;20212;-60
2021/04/17 12:06:51;;;;;;;4.93;4.43;;;9.70;97.50;;;;;;5081728;28;20334;-60
2021/04/17 12:09:19;;;;;;;3.97;3.58;;;9.80;98.00;;;;;;5076821;28;20201;-63
2021/04/17 12:11:48;;;;;;;5.10;3.63;;;9.90;97.80;;;;;;5078540;28;20220;-61
2021/04/17 12:14:15;;;;;;;4.90;4.00;;;9.60;97.30;;;;;;5074926;28;20204;-61
2021/04/17 12:16:44;;;;;;;5.28;3.65;;;9.40;98.20;;;;;;5077302;28;20211;-60
2021/04/17 12:19:11;;;;;;;5.57;4.53;;;9.20;98.40;;;;;;5078095;28;20203;-60
2021/04/17 12:21:37;;;;;;;3.20;2.90;;;9.30;98.60;;;;;;5077503;28;20235;-60
2021/04/17 12:24:04;;;;;;;11.77;4.05;;;9.40;98.30;;;;;;5078874;28;20207;-63
2021/04/17 12:26:30;;;;;;;3.72;2.80;;;9.30;98.40;;;;;;5077653;28;20265;-60
2021/04/17 12:28:57;;;;;;;3.58;3.28;;;9.20;97.90;;;;;;5072487;28;20566;-60
2021/04/17 12:31:24;;;;;;;4.82;3.85;;;9.20;98.80;;;;;;5076079;28;20208;-61
2021/04/17 12:33:50;;;;;;;5.28;4.78;;;9.10;99.50;;;;;;5075593;28;20505;-61
2021/04/17 12:36:17;;;;;;;7.93;4.32;;;9.10;98.90;;;;;;5076004;28;20246;-62
2021/04/17 12:38:43;;;;;;;7.80;3.92;;;9.30;98.80;;;;;;5078968;28;20199;-60
2021/04/17 12:41:10;;;;;;;5.20;3.40;;;9.50;98.40;;;;;;5075768;28;20368;-62
2021/04/17 12:43:37;;;;;;;5.25;3.63;;;9.30;98.70;;;;;;5076047;28;20299;-61
2021/04/17 12:46:05;;;;;;;6.03;4.20;;;9.10;99.50;;;;;;5076096;28;20210;-60
2021/04/17 12:48:32;;;;;;;3.53;3.22;;;9.00;99.00;;;;;;5071788;28;20240;-60
2021/04/17 12:50:59;;;;;;;4.78;4.43;;;8.90;99.20;;;;;;5074680;28;20306;-61
2021/04/17 12:53:26;;;;;;;4.25;3.80;;;8.80;99.40;;;;;;5074957;28;20543;-60
2021/04/17 12:55:53;;;;;;;7.78;4.03;;;8.70;99.90;;;;;;5080647;28;20203;-60
2021/04/17 12:58:20;;;;;;;3.65;3.13;;;8.70;99.90;;;;;;5075406;28;20202;-60
2021/04/17 13:00:47;;;;;;;5.20;4.32;;;8.50;99.90;;;;;;5078574;28;20242;-60
2021/04/17 13:03:14;;;;;;;3.90;3.50;;;8.40;99.90;;;;;;5082338;28;20536;-60
2021/04/17 13:05:40;;;;;;;4.03;3.55;;;8.40;99.90;;;;;;5091144;28;20394;-61
2021/04/17 13:08:07;;;;;;;5.10;3.60;;;8.30;99.90;;;;;;5093152;28;20270;-61